Muskogee, OK (74401)

1:20 AM CDT on May 27, 2017 (GMT -0500)
Downtown Muskogee | | Change Station
Active Advisory: Flood Advisory Active Notice: Flood Advisory

Elev 25 ft 35.75 °N, 95.37 °W | Updated 1 second ago

Clear
Clear
78.4 °F
Feels Like 81 °F
N
0.0
Wind Variable Wind from SSE
Gusts 2.0 mph

Today
High -- | Low -- °F
--% Chance of Precip.
Yesterday
High -- | Low -- °F
Precip. -- in
Pressure 29.77 in
Visibility 10.0 miles
Clouds Clear
Heat Index 81 °F
Dew Point 73 °F
Humidity 84%
Rainfall 0.00 in
Snow Depth Not available.
6:08 AM 8:29 PM
Waxing Crescent, 3% visible
METAR KMKO 270553Z AUTO 19008KT 10SM CLR 25/23 A2979 RMK AO2 SLP080 60020 T02500233 10306 20250 403220200 51009 $
Pressure 29.77 in
Visibility 10.0 miles
Clouds Clear
Heat Index 81 °F
Dew Point 73 °F
Humidity 84%
Rainfall 0.00 in
Snow Depth Not available.
6:08 AM 8:29 PM
Waxing Crescent, 3% visible
METAR KMKO 270553Z AUTO 19008KT 10SM CLR 25/23 A2979 RMK AO2 SLP080 60020 T02500233 10306 20250 403220200 51009 $

Get Your Daily Forecast Email!

Thanks for signing up!

Be on the lookout for a verification email in your inbox.

You'll start receiving severe weather alerts in your inbox..

×

10-Day Weather Forecast

Almanac

Astronomy

May. 27, 2017 Rise Set
Actual Time
Civil Twilight
Nautical Twilight
Astronomical Twilight
Moon
Length of Visible Light
Length of Day
Tomorrow will be .
, % of the Moon is Illuminated

Today's Extremes

State Highs State Lows

Community

WunderPhotos

Category 6

Welcome to Category 6. This is the collective home for Weather Underground's featured writeups by Dr. Jeff Masters (right), Bob Henson (left), Chris Burt, and other regular contributors.

Nearby

Air Quality

  Air Quality AQ Index Pollutant
Not available.

Snow Depth

Station Depth Elevation

Earthquake Activity

City Distance Mag. Time & Date
Minimum magnitude displayed is 2.5.

Coastal Water Temperatures

Place Temperature

Stations

Nearby Weather Stations

Station Location Temp. Windchill Dew Point Humidity Wind Precip. Elev Updated Type
                   

Watches & Warnings

Flood Advisory
Issued: 11:27 PM CDT May. 26, 2017 – National Weather Service

The flood advisory continues for
the Arkansas River near Muskogee
* until further notice, or until the advisory is cancelled.
* At 11:00 PM Friday, the stage was 27.5 feet.
* Action stage is 27.0 feet.
* Flood stage is 28.0 feet.
* Forecast... the river will continue to flucuate from around
27 feet to around 28 feet through Wednesday. Rainfall on
Saturday could result in changes to this forecast. Continue
to monitor updates.
* Impact... at 27.0 feet, no flooding occurs by low lying
agricultural areas may be threatened. At 28.0 feet, minor
lowland flooding occurs.


Lat... Lon 3583 9520 3552 9507 3547 9515 3559 9532 3583 9537